METAR Data
IDs: Format: Raw Decoded Include TAF

Data at: 0155 UTC 06 Dec 2020

METAR for:KVUJ (Albemarle/Stanly Cnt, NC, US)
Text:KVUJ 060135Z AUTO 00000KT 10SM CLR 02/00 A3008 RMK AO2 T00180002
Temperature: 1.8°C ( 35°F)
Dewpoint: 0.2°C ( 32°F) [RH = 89%]
Pressure (altimeter):30.08 inches Hg (1018.7 mb)
Winds:calm
Visibility:10 or more sm (16+ km)
Ceiling:at least 12,000 feet AGL
Clouds:sky clear below 12,000 feet AGL
QC Flag:automated observation with no human augmentation